Time+07,TemperatureF,Dew PointF,Humidity,Sea Level PressureIn,VisibilityMPH,Wind Direction,Wind SpeedMPH,Gust SpeedMPH,PrecipitationIn,Events,Conditions,WindDirDegrees,DateUTC
12:00 AM,78.8,75.2,89,29.71,5.6,SSW,4.6,-,N/A,Rain-Thunderstorm,Light Thunderstorms and Rain,210,2013-07-19 17:00:00
12:30 AM,78.8,75.2,89,29.68,5.6,SSW,6.9,-,N/A,Rain-Thunderstorm,Light Thunderstorms and Rain,210,2013-07-19 17:30:00
1:00 AM,77.0,75.2,94,29.68,5.6,SSW,6.9,-,N/A,Rain-Thunderstorm,Light Thunderstorms and Rain,210,2013-07-19 18:00:00
7:00 AM,77.0,75.2,94,29.71,6.2,Calm,Calm,-,N/A,Rain-Thunderstorm,Light Thunderstorms and Rain,0,2013-07-20 00:00:00
7:30 AM,77.0,75.2,94,29.71,6.2,North,1.2,-,N/A,,Mostly Cloudy,350,2013-07-20 00:30:00
8:00 AM,78.8,75.2,89,29.71,6.2,Calm,Calm,-,N/A,,Mostly Cloudy,0,2013-07-20 01:00:00
8:30 AM,78.8,75.2,89,29.71,6.2,Calm,Calm,-,N/A,,Mostly Cloudy,0,2013-07-20 01:30:00
9:00 AM,80.6,75.2,84,29.71,6.2,South,2.3,-,N/A,,Mostly Cloudy,190,2013-07-20 02:00:00
9:30 AM,80.6,75.2,84,29.71,6.2,South,2.3,-,N/A,,Mostly Cloudy,170,2013-07-20 02:30:00
10:00 AM,80.6,73.4,79,29.71,6.2,SW,3.5,-,N/A,,Mostly Cloudy,230,2013-07-20 03:00:00
10:30 AM,82.4,75.2,79,29.71,6.2,SSW,3.5,-,N/A,,Mostly Cloudy,200,2013-07-20 03:30:00
11:00 AM,82.4,75.2,79,29.71,6.2,WSW,4.6,-,N/A,,Mostly Cloudy,250,2013-07-20 04:00:00
11:30 AM,82.4,75.2,79,29.71,6.2,West,6.9,-,N/A,,Mostly Cloudy,260,2013-07-20 04:30:00
12:00 PM,82.4,75.2,79,29.71,6.2,West,9.2,-,N/A,,Mostly Cloudy,260,2013-07-20 05:00:00
12:30 PM,84.2,75.2,74,29.68,6.2,WSW,9.2,-,N/A,,Mostly Cloudy,250,2013-07-20 05:30:00
1:00 PM,84.2,75.2,74,29.68,6.2,WNW,9.2,-,N/A,,Mostly Cloudy,290,2013-07-20 06:00:00
1:30 PM,86.0,75.2,70,29.68,6.2,West,9.2,-,N/A,,Mostly Cloudy,280,2013-07-20 06:30:00
2:00 PM,84.2,73.4,70,29.68,6.2,West,13.8,-,N/A,,Mostly Cloudy,280,2013-07-20 07:00:00
2:30 PM,84.2,75.2,74,29.65,6.2,West,13.8,-,N/A,,Mostly Cloudy,280,2013-07-20 07:30:00
3:00 PM,84.2,75.2,74,29.65,6.2,WNW,8.1,-,N/A,,Mostly Cloudy,300,2013-07-20 08:00:00
3:30 PM,84.2,75.2,74,29.62,6.2,North,8.1,-,N/A,,Mostly Cloudy,370,2013-07-20 08:30:00
4:00 PM,84.2,75.2,74,29.62,6.2,West,8.1,-,N/A,,Mostly Cloudy,260,2013-07-20 09:00:00
4:30 PM,84.2,75.2,74,29.62,6.2,West,9.2,-,N/A,,Mostly Cloudy,260,2013-07-20 09:30:00
5:00 PM,84.2,73.4,70,29.62,6.2,WSW,9.2,-,N/A,,Mostly Cloudy,250,2013-07-20 10:00:00
5:30 PM,78.8,73.4,83,29.62,6.2,WSW,16.1,-,N/A,,Mostly Cloudy,250,2013-07-20 10:30:00
6:00 PM,78.8,73.4,83,29.62,6.2,West,16.1,-,N/A,,Mostly Cloudy,260,2013-07-20 11:00:00
6:30 PM,78.8,73.4,83,29.62,6.2,West,11.5,-,N/A,,Mostly Cloudy,260,2013-07-20 11:30:00
7:00 PM,77.0,73.4,89,29.65,5.6,WSW,6.9,-,N/A,,Scattered Clouds,250,2013-07-20 12:00:00
7:30 PM,77.0,73.4,89,29.65,5.6,SW,6.9,-,N/A,,Scattered Clouds,230,2013-07-20 12:30:00
8:00 PM,77.0,73.4,89,29.68,5.6,WSW,5.8,-,N/A,,Scattered Clouds,240,2013-07-20 13:00:00
8:30 PM,77.0,73.4,89,29.68,5.6,WSW,3.5,-,N/A,,Scattered Clouds,250,2013-07-20 13:30:00
9:00 PM,77.0,73.4,89,29.68,5.6,SW,3.5,-,N/A,,Scattered Clouds,230,2013-07-20 14:00:00
9:30 PM,77.0,73.4,89,29.68,5.6,WSW,5.8,-,N/A,,Scattered Clouds,240,2013-07-20 14:30:00
10:00 PM,77.0,75.2,94,29.68,5.6,SW,3.5,-,N/A,,Scattered Clouds,230,2013-07-20 15:00:00
11:00 PM,77.0,73.4,89,29.68,5.6,WSW,4.6,-,N/A,,Scattered Clouds,250,2013-07-20 16:00:00
11:30 PM,77.0,73.4,89,29.68,5.6,SW,4.6,-,N/A,,Scattered Clouds,230,2013-07-20 16:30:00